Time;durP1;ratioP1;P1;durP2;ratioP2;P2;SDS_P1;SDS_P2;PMS_P1;PMS_P2;Temp;Humidity;BMP_temperature;BMP_pressure;BME280_temperature;BME280_humidity;BME280_pressure;Samples;Min_cycle;Max_cycle;Signal;HPM_P1;HPM_P2
2021/04/27 00:01:26;;;;;;;6.93;2.70;;;3.50;86.90;;;;;;5081633;28;20367;-63
2021/04/27 00:03:52;;;;;;;6.70;2.50;;;3.50;86.50;;;;;;5075817;28;20138;-60
2021/04/27 00:06:19;;;;;;;4.45;2.50;;;3.50;86.90;;;;;;5078846;28;20244;-61
2021/04/27 00:08:45;;;;;;;6.15;2.90;;;3.40;87.50;;;;;;5077151;28;20039;-61
2021/04/27 00:11:12;;;;;;;6.82;2.83;;;3.40;87.90;;;;;;5076693;28;20214;-61
2021/04/27 00:13:38;;;;;;;7.53;3.20;;;3.40;87.70;;;;;;5083168;28;20059;-61
2021/04/27 00:16:04;;;;;;;7.25;3.08;;;3.40;87.50;;;;;;5075055;28;20041;-61
2021/04/27 00:18:31;;;;;;;6.80;2.85;;;3.30;87.70;;;;;;5080961;28;20131;-61
2021/04/27 00:20:57;;;;;;;8.90;2.70;;;3.30;88.00;;;;;;5071706;28;20036;-61
2021/04/27 00:23:23;;;;;;;10.02;3.15;;;3.30;88.20;;;;;;5079597;28;20213;-61
2021/04/27 00:25:49;;;;;;;6.03;2.45;;;3.30;87.80;;;;;;5070653;28;20127;-61
2021/04/27 00:28:15;;;;;;;5.13;3.22;;;3.30;88.70;;;;;;5079228;28;20093;-61
2021/04/27 00:30:41;;;;;;;5.03;2.70;;;3.30;88.90;;;;;;5074485;28;20129;-61
2021/04/27 00:33:07;;;;;;;6.28;2.65;;;3.30;88.40;;;;;;5077621;28;20047;-61
2021/04/27 00:35:33;;;;;;;8.30;2.75;;;3.30;88.50;;;;;;5068173;28;20464;-61
2021/04/27 00:37:59;;;;;;;7.13;2.63;;;3.30;88.90;;;;;;5078227;28;20210;-61
2021/04/27 00:40:26;;;;;;;6.30;2.70;;;3.20;88.90;;;;;;5075289;28;20111;-61
2021/04/27 00:42:52;;;;;;;9.05;2.95;;;3.20;88.50;;;;;;5078504;28;20436;-61
2021/04/27 00:45:23;;;;;;;5.53;2.33;;;3.20;88.30;;;;;;5073208;28;20139;-61
2021/04/27 00:47:50;;;;;;;6.28;3.15;;;3.20;88.00;;;;;;5077999;28;20036;-61
2021/04/27 00:50:20;;;;;;;7.20;2.53;;;3.20;88.90;;;;;;5074221;28;20058;-60
2021/04/27 00:52:47;;;;;;;3.63;2.83;;;3.20;88.50;;;;;;5073753;28;20394;-60
2021/04/27 00:55:14;;;;;;;6.85;2.92;;;3.20;87.90;;;;;;5076671;28;20466;-60
2021/04/27 00:57:40;;;;;;;5.43;3.05;;;3.10;88.20;;;;;;5071904;28;20044;-61
2021/04/27 01:00:09;;;;;;;7.78;2.95;;;3.10;89.10;;;;;;5076650;28;20040;-60
2021/04/27 01:02:36;;;;;;;5.68;2.67;;;3.10;89.20;;;;;;5071829;28;20048;-60
2021/04/27 01:05:05;;;;;;;7.80;3.08;;;3.10;89.10;;;;;;5077294;28;20131;-60
2021/04/27 01:07:37;;;;;;;6.10;2.95;;;3.10;89.80;;;;;;5070420;28;20487;-61
2021/04/27 01:10:10;;;;;;;6.43;3.10;;;3.00;90.00;;;;;;5077991;28;20058;-60
2021/04/27 01:12:54;;;;;;;6.18;3.28;;;3.00;89.30;;;;;;5072770;28;20032;-60
2021/04/27 01:15:27;;;;;;;5.32;3.05;;;3.00;90.00;;;;;;5080838;28;20071;-60
2021/04/27 01:17:55;;;;;;;5.43;3.00;;;3.00;90.00;;;;;;5071607;28;20048;-60
2021/04/27 01:20:35;;;;;;;6.32;3.15;;;3.00;90.40;;;;;;5076134;28;20123;-60
2021/04/27 01:23:13;;;;;;;5.60;3.15;;;3.00;90.00;;;;;;5073296;28;20040;-60
2021/04/27 01:25:55;;;;;;;9.13;3.47;;;2.90;90.60;;;;;;5075994;28;20044;-60
2021/04/27 01:28:24;;;;;;;6.47;3.40;;;2.90;90.60;;;;;;5072699;28;20131;-60
2021/04/27 01:30:50;;;;;;;6.75;3.20;;;2.90;90.30;;;;;;5082074;28;20091;-60
2021/04/27 01:33:19;;;;;;;8.25;3.80;;;2.90;90.40;;;;;;5070234;28;20146;-62
2021/04/27 01:35:46;;;;;;;9.65;3.53;;;2.90;90.50;;;;;;5079028;28;20056;-61
2021/04/27 01:38:15;;;;;;;6.15;2.90;;;2.90;90.40;;;;;;5071294;28;20093;-60
2021/04/27 01:40:42;;;;;;;9.18;3.47;;;2.80;90.40;;;;;;5076124;28;20060;-60
2021/04/27 01:43:08;;;;;;;7.03;3.20;;;2.80;90.70;;;;;;5074491;28;20075;-60
2021/04/27 01:45:35;;;;;;;7.78;3.65;;;2.80;90.60;;;;;;5075139;28;20040;-60
2021/04/27 01:48:03;;;;;;;9.38;3.58;;;2.80;90.60;;;;;;5075445;28;20071;-60
2021/04/27 01:50:30;;;;;;;8.57;3.33;;;2.80;91.10;;;;;;5077601;28;20383;-60
2021/04/27 01:52:56;;;;;;;8.82;3.65;;;2.70;91.00;;;;;;5073229;28;20052;-60
2021/04/27 01:55:23;;;;;;;8.45;3.35;;;2.70;90.80;;;;;;5079113;28;20053;-60
2021/04/27 01:57:49;;;;;;;5.18;3.05;;;2.70;90.90;;;;;;5081695;28;20064;-60
2021/04/27 02:00:18;;;;;;;6.35;3.38;;;2.70;90.80;;;;;;5071917;28;20067;-60
2021/04/27 02:02:46;;;;;;;9.27;3.50;;;2.70;90.90;;;;;;5078841;28;20056;-60
2021/04/27 02:05:16;;;;;;;5.88;2.90;;;2.70;91.00;;;;;;5072756;28;20055;-60
2021/04/27 02:07:42;;;;;;;8.13;3.33;;;2.70;91.20;;;;;;5081670;28;20040;-61
2021/04/27 02:10:11;;;;;;;10.60;3.60;;;2.70;90.90;;;;;;5073161;28;20503;-60
2021/04/27 02:12:42;;;;;;;7.85;3.13;;;2.60;91.30;;;;;;5077390;28;20075;-60
2021/04/27 02:15:09;;;;;;;11.80;4.07;;;2.60;92.00;;;;;;5072557;28;20047;-60
2021/04/27 02:18:00;;;;;;;8.50;4.20;;;2.60;92.40;;;;;;5078087;28;20040;-60
2021/04/27 02:20:27;;;;;;;11.43;3.78;;;2.60;92.20;;;;;;5073047;28;20384;-60
2021/04/27 02:22:56;;;;;;;7.57;3.70;;;2.60;91.90;;;;;;5075381;28;20109;-60
2021/04/27 02:25:23;;;;;;;11.20;3.78;;;2.60;92.40;;;;;;5070423;28;20533;-60
2021/04/27 02:27:50;;;;;;;8.32;3.42;;;2.60;91.80;;;;;;5078471;28;20395;-60
2021/04/27 02:30:19;;;;;;;6.43;3.67;;;2.50;91.40;;;;;;5073694;28;20036;-60
2021/04/27 02:32:46;;;;;;;7.97;3.28;;;2.50;91.90;;;;;;5081715;28;20037;-60
2021/04/27 02:35:15;;;;;;;8.35;3.85;;;2.50;92.10;;;;;;5077430;28;20074;-60
2021/04/27 02:37:42;;;;;;;7.18;3.75;;;2.50;91.70;;;;;;5080233;28;20097;-60
2021/04/27 02:40:09;;;;;;;7.85;3.80;;;2.50;91.30;;;;;;5074771;28;20040;-60
2021/04/27 02:42:36;;;;;;;8.75;4.40;;;2.50;91.20;;;;;;5079392;28;20462;-60
2021/04/27 02:45:05;;;;;;;8.52;4.13;;;2.40;92.20;;;;;;5077501;28;20075;-61
2021/04/27 02:47:31;;;;;;;7.90;4.55;;;2.40;92.90;;;;;;5081581;28;20464;-61
2021/04/27 02:49:58;;;;;;;8.45;4.43;;;2.40;92.70;;;;;;5080172;28;20046;-60
2021/04/27 02:52:24;;;;;;;6.65;4.03;;;2.40;92.70;;;;;;5075413;28;20036;-60
2021/04/27 02:54:51;;;;;;;9.98;4.22;;;2.30;92.60;;;;;;5080085;28;20064;-60
2021/04/27 02:57:16;;;;;;;7.68;3.90;;;2.30;93.10;;;;;;5076885;28;20095;-60
2021/04/27 02:59:42;;;;;;;7.25;4.38;;;2.30;92.90;;;;;;5082375;28;20127;-60
2021/04/27 03:02:09;;;;;;;8.18;4.32;;;2.20;93.10;;;;;;5078648;28;20435;-60
2021/04/27 03:04:36;;;;;;;8.93;4.40;;;2.20;93.10;;;;;;5080564;28;20053;-60
2021/04/27 03:07:02;;;;;;;8.15;4.72;;;2.20;93.00;;;;;;5075817;28;20055;-60
2021/04/27 03:09:28;;;;;;;9.23;4.47;;;2.20;93.30;;;;;;5079335;28;20032;-60
2021/04/27 03:11:53;;;;;;;7.13;4.30;;;2.10;93.20;;;;;;5076451;28;20567;-60
2021/04/27 03:14:19;;;;;;;6.63;4.47;;;2.10;93.30;;;;;;5081714;28;20120;-60
2021/04/27 03:16:45;;;;;;;9.23;4.30;;;2.10;93.20;;;;;;5076986;28;20035;-60
2021/04/27 03:19:11;;;;;;;9.73;5.10;;;2.00;93.20;;;;;;5079685;28;20120;-60
2021/04/27 03:21:36;;;;;;;7.45;4.65;;;2.00;93.30;;;;;;5071923;28;21140;-60
2021/04/27 03:24:03;;;;;;;6.68;5.00;;;2.00;93.10;;;;;;5080493;28;20130;-60
2021/04/27 03:26:29;;;;;;;10.27;5.13;;;2.00;93.40;;;;;;5075070;28;20534;-60
2021/04/27 03:28:54;;;;;;;6.70;4.60;;;1.90;93.40;;;;;;5083542;28;20056;-60
2021/04/27 03:31:20;;;;;;;9.32;5.47;;;2.00;93.60;;;;;;5079947;28;20043;-60
2021/04/27 03:33:46;;;;;;;13.15;5.10;;;1.90;93.30;;;;;;5074510;28;20052;-60
2021/04/27 03:36:13;;;;;;;9.00;5.28;;;1.90;93.70;;;;;;5082436;28;20040;-60
2021/04/27 03:38:39;;;;;;;9.57;5.28;;;1.90;93.50;;;;;;5071192;28;20106;-60
2021/04/27 03:41:05;;;;;;;9.38;5.90;;;1.90;93.50;;;;;;5078302;28;20043;-60
2021/04/27 03:43:31;;;;;;;9.82;6.05;;;1.90;93.60;;;;;;5073050;28;20036;-60
2021/04/27 03:45:57;;;;;;;7.53;5.80;;;1.90;93.80;;;;;;5082181;28;20043;-60
2021/04/27 03:48:24;;;;;;;9.02;5.55;;;1.90;93.60;;;;;;5074200;28;20502;-59
2021/04/27 03:50:50;;;;;;;12.23;5.88;;;1.80;93.30;;;;;;5079317;28;20084;-60
2021/04/27 03:53:16;;;;;;;9.15;6.05;;;1.80;93.30;;;;;;5074186;28;20059;-60
2021/04/27 03:55:42;;;;;;;11.48;6.40;;;1.80;93.40;;;;;;5081519;28;20060;-60
2021/04/27 03:58:08;;;;;;;8.68;6.10;;;1.80;93.50;;;;;;5073536;28;20387;-60
2021/04/27 04:00:35;;;;;;;7.40;5.38;;;1.80;93.40;;;;;;5080414;28;20052;-60
2021/04/27 04:03:01;;;;;;;10.43;6.45;;;1.80;93.70;;;;;;5076133;28;20430;-60
2021/04/27 04:05:27;;;;;;;10.73;6.45;;;1.80;93.90;;;;;;5079898;28;20116;-60
2021/04/27 04:07:53;;;;;;;7.72;6.25;;;1.80;93.80;;;;;;5082074;28;20115;-60
2021/04/27 04:10:20;;;;;;;11.10;6.65;;;1.70;93.50;;;;;;5075057;28;20553;-60
2021/04/27 04:12:46;;;;;;;12.50;6.32;;;1.70;93.60;;;;;;5078744;28;20037;-60
2021/04/27 04:15:14;;;;;;;8.27;6.80;;;1.70;93.90;;;;;;5074627;28;20040;-60
2021/04/27 04:17:40;;;;;;;11.27;6.20;;;1.70;94.00;;;;;;5079329;28;20047;-60
2021/04/27 04:20:10;;;;;;;10.40;6.10;;;1.70;93.90;;;;;;5074283;28;20036;-60
2021/04/27 04:22:37;;;;;;;8.20;5.78;;;1.70;93.80;;;;;;5076755;28;20044;-60
2021/04/27 04:25:09;;;;;;;9.30;6.65;;;1.60;93.70;;;;;;5072933;28;20109;-60
2021/04/27 04:27:35;;;;;;;9.45;6.30;;;1.60;94.00;;;;;;5080246;28;20111;-60
2021/04/27 04:30:06;;;;;;;11.35;6.00;;;1.60;93.90;;;;;;5073616;28;20062;-60
2021/04/27 04:32:32;;;;;;;11.38;6.15;;;1.60;94.10;;;;;;5075320;28;20070;-60
2021/04/27 04:34:58;;;;;;;10.63;5.72;;;1.60;94.10;;;;;;5074782;28;20072;-60
2021/04/27 04:37:23;;;;;;;9.18;6.22;;;1.60;94.00;;;;;;5079323;28;20040;-60
2021/04/27 04:39:49;;;;;;;8.10;6.32;;;1.60;93.90;;;;;;5074854;28;20071;-59
2021/04/27 04:42:17;;;;;;;10.60;6.63;;;1.60;93.80;;;;;;5076020;28;20040;-60
2021/04/27 04:44:43;;;;;;;7.50;5.80;;;1.60;93.50;;;;;;5075026;28;20052;-60
2021/04/27 04:47:09;;;;;;;7.18;5.78;;;1.60;93.70;;;;;;5079227;28;20087;-60
2021/04/27 04:49:35;;;;;;;9.85;6.40;;;1.60;93.50;;;;;;5077658;28;20055;-60
2021/04/27 04:52:01;;;;;;;7.32;6.07;;;1.70;93.60;;;;;;5075963;28;20068;-60
2021/04/27 04:54:26;;;;;;;8.18;6.47;;;1.60;93.50;;;;;;5077625;28;20037;-60
2021/04/27 04:56:52;;;;;;;13.15;6.63;;;1.60;93.60;;;;;;5071380;28;20051;-59
2021/04/27 04:59:18;;;;;;;7.65;6.35;;;1.70;93.40;;;;;;5079139;28;20044;-60
2021/04/27 05:01:44;;;;;;;8.13;6.38;;;1.70;93.30;;;;;;5072847;28;20055;-60
2021/04/27 05:04:10;;;;;;;7.03;5.78;;;1.70;93.30;;;;;;5078797;28;20048;-60
2021/04/27 05:06:39;;;;;;;7.10;5.90;;;1.80;93.10;;;;;;5074063;28;20039;-60
2021/04/27 05:09:07;;;;;;;10.25;6.38;;;1.90;93.00;;;;;;5076558;28;20080;-60
2021/04/27 05:11:33;;;;;;;10.98;5.50;;;2.00;92.80;;;;;;5074475;28;20117;-60
2021/04/27 05:13:59;;;;;;;7.10;5.63;;;2.10;92.50;;;;;;5078126;28;20044;-60
2021/04/27 05:16:26;;;;;;;10.40;5.55;;;2.10;92.30;;;;;;5075690;28;20384;-60
2021/04/27 05:18:53;;;;;;;10.27;5.82;;;2.20;92.10;;;;;;5077725;28;20199;-60
2021/04/27 05:21:20;;;;;;;7.50;5.18;;;2.30;91.90;;;;;;5074904;28;20131;-60
2021/04/27 05:23:48;;;;;;;8.88;5.78;;;2.40;91.40;;;;;;5080180;28;20119;-60
2021/04/27 05:26:14;;;;;;;9.82;5.50;;;2.50;91.40;;;;;;5072137;28;20089;-60
2021/04/27 05:28:40;;;;;;;7.90;5.75;;;2.70;90.90;;;;;;5078654;28;20048;-60
2021/04/27 05:31:06;;;;;;;5.60;4.90;;;2.80;90.50;;;;;;5079292;28;20049;-60
2021/04/27 05:33:33;;;;;;;6.93;5.50;;;3.00;90.50;;;;;;5074686;28;20044;-60
2021/04/27 05:35:59;;;;;;;7.10;5.40;;;3.10;90.10;;;;;;5077861;28;20043;-60
2021/04/27 05:38:25;;;;;;;10.50;5.88;;;3.30;89.70;;;;;;5071354;28;20048;-60
2021/04/27 05:40:51;;;;;;;6.25;4.75;;;3.60;89.40;;;;;;5076586;28;20570;-60
2021/04/27 05:43:16;;;;;;;8.38;4.45;;;3.90;87.70;;;;;;5077469;28;20127;-60
2021/04/27 05:45:43;;;;;;;6.00;4.00;;;3.90;86.20;;;;;;5075642;28;20044;-60
2021/04/27 05:48:09;;;;;;;6.72;4.20;;;4.10;86.20;;;;;;5070746;28;20043;-59
2021/04/27 05:50:35;;;;;;;8.65;4.80;;;4.20;84.20;;;;;;5081761;28;20048;-60
2021/04/27 05:53:01;;;;;;;6.10;5.40;;;4.30;84.60;;;;;;5073927;28;20043;-60
2021/04/27 05:55:27;;;;;;;5.18;4.60;;;4.40;84.40;;;;;;5073585;28;20052;-60
2021/04/27 05:57:53;;;;;;;4.78;4.28;;;4.50;83.90;;;;;;5072961;28;20088;-60
2021/04/27 06:00:20;;;;;;;7.95;3.75;;;4.60;83.10;;;;;;5078668;28;20101;-59
2021/04/27 06:02:46;;;;;;;9.05;3.67;;;4.70;81.20;;;;;;5068305;28;20387;-59
2021/04/27 06:05:12;;;;;;;5.53;3.17;;;4.70;79.70;;;;;;5079918;28;20068;-60
2021/04/27 06:07:39;;;;;;;5.32;3.30;;;4.90;77.90;;;;;;5078796;28;20052;-60
2021/04/27 06:10:05;;;;;;;4.32;3.22;;;5.00;78.50;;;;;;5082618;28;20035;-60
2021/04/27 06:12:32;;;;;;;9.57;3.80;;;5.20;78.50;;;;;;5081083;28;20242;-60
2021/04/27 06:14:58;;;;;;;5.18;2.90;;;5.30;77.50;;;;;;5075798;28;20274;-60
2021/04/27 06:17:23;;;;;;;4.93;3.03;;;5.40;75.80;;;;;;5082500;28;20032;-60
2021/04/27 06:19:49;;;;;;;6.65;3.22;;;5.60;76.50;;;;;;5077231;28;20135;-60
2021/04/27 06:22:16;;;;;;;3.65;2.70;;;5.70;76.50;;;;;;5082182;28;20463;-60
2021/04/27 06:24:42;;;;;;;7.90;2.75;;;5.90;74.80;;;;;;5076494;28;20042;-60
2021/04/27 06:27:08;;;;;;;6.68;2.67;;;6.00;72.70;;;;;;5080317;28;20415;-60
2021/04/27 06:29:34;;;;;;;8.15;2.83;;;6.10;74.00;;;;;;5078857;28;20155;-60
2021/04/27 06:32:00;;;;;;;5.35;2.50;;;6.30;73.40;;;;;;5077005;28;20055;-60
2021/04/27 06:34:25;;;;;;;9.20;2.78;;;6.40;71.40;;;;;;5075617;28;20040;-60
2021/04/27 06:36:51;;;;;;;8.85;2.95;;;6.60;71.70;;;;;;5076686;28;20052;-60
2021/04/27 06:39:17;;;;;;;7.82;2.95;;;6.70;70.70;;;;;;5074781;28;20134;-60
2021/04/27 06:41:43;;;;;;;3.53;2.30;;;6.80;69.80;;;;;;5082936;28;20521;-59
2021/04/27 06:44:09;;;;;;;4.35;2.08;;;6.90;65.90;;;;;;5074423;28;20459;-59
2021/04/27 06:46:35;;;;;;;4.75;2.40;;;7.10;66.90;;;;;;5084970;28;20039;-60
2021/04/27 06:49:01;;;;;;;3.13;2.08;;;7.20;66.20;;;;;;5081538;28;20463;-60
2021/04/27 06:51:27;;;;;;;3.63;1.85;;;7.40;65.70;;;;;;5075026;28;20059;-60
2021/04/27 06:53:53;;;;;;;3.58;2.28;;;7.50;63.00;;;;;;5080740;28;20052;-60
2021/04/27 06:56:19;;;;;;;3.70;1.80;;;7.60;64.30;;;;;;5073173;28;20064;-60
2021/04/27 06:58:45;;;;;;;4.20;1.95;;;7.70;62.90;;;;;;5081094;28;20480;-59
2021/04/27 07:01:11;;;;;;;4.75;1.90;;;7.80;62.90;;;;;;5075784;28;20046;-60
2021/04/27 07:03:37;;;;;;;4.18;1.80;;;7.80;63.40;;;;;;5081753;28;20036;-60
2021/04/27 07:06:03;;;;;;;3.63;1.98;;;8.00;62.10;;;;;;5072405;28;20040;-60
2021/04/27 07:08:30;;;;;;;2.70;1.83;;;8.20;62.10;;;;;;5082720;28;20110;-60
2021/04/27 07:10:57;;;;;;;3.30;2.40;;;8.30;62.70;;;;;;5077623;28;20130;-60
2021/04/27 07:13:27;;;;;;;4.15;1.83;;;8.50;60.60;;;;;;5080489;28;20042;-60
2021/04/27 07:15:53;;;;;;;3.22;1.52;;;8.70;60.60;;;;;;5072120;28;20076;-60
2021/04/27 07:18:19;;;;;;;5.80;3.13;;;8.80;57.80;;;;;;5081468;28;20072;-60
2021/04/27 07:20:45;;;;;;;4.10;1.90;;;9.00;58.10;;;;;;5070460;28;20040;-60
2021/04/27 07:23:11;;;;;;;3.28;1.90;;;9.10;55.40;;;;;;5081136;28;20140;-60
2021/04/27 07:25:37;;;;;;;3.55;1.65;;;9.20;56.50;;;;;;5076452;28;20479;-60
2021/04/27 07:28:05;;;;;;;4.15;1.35;;;9.40;56.20;;;;;;5077959;28;20121;-60
2021/04/27 07:30:32;;;;;;;5.82;2.00;;;9.50;55.10;;;;;;5080269;28;20044;-60
2021/04/27 07:32:59;;;;;;;9.52;1.60;;;9.60;55.40;;;;;;5073893;28;20063;-60
2021/04/27 07:35:25;;;;;;;2.78;1.60;;;10.00;53.40;;;;;;5077701;28;20090;-60
2021/04/27 07:37:51;;;;;;;3.38;1.48;;;10.30;51.30;;;;;;5078004;28;20067;-60
2021/04/27 07:40:17;;;;;;;7.63;1.73;;;10.80;49.90;;;;;;5079299;28;20075;-60
2021/04/27 07:42:43;;;;;;;2.95;1.60;;;11.20;48.40;;;;;;5074566;28;20384;-60
2021/04/27 07:45:11;;;;;;;5.03;2.83;;;11.70;48.20;;;;;;5082785;28;20062;-60
2021/04/27 07:47:37;;;;;;;4.78;1.90;;;11.90;46.40;;;;;;5076097;28;20351;-60
2021/04/27 07:50:06;;;;;;;3.45;1.67;;;12.00;46.00;;;;;;5079639;28;20388;-60
2021/04/27 07:52:33;;;;;;;3.28;1.85;;;11.90;45.70;;;;;;5073568;28;20416;-60
2021/04/27 07:55:00;;;;;;;3.58;1.67;;;11.90;45.60;;;;;;5082601;28;20539;-60
2021/04/27 07:57:25;;;;;;;4.07;2.05;;;11.90;46.60;;;;;;5073420;28;20043;-60
2021/04/27 07:59:51;;;;;;;4.05;1.83;;;12.00;46.80;;;;;;5079074;28;20487;-60
2021/04/27 08:02:17;;;;;;;2.72;1.90;;;12.00;46.10;;;;;;5078826;28;20028;-60
2021/04/27 08:04:45;;;;;;;3.92;1.90;;;11.90;45.80;;;;;;5080448;28;20056;-60
2021/04/27 08:07:11;;;;;;;4.20;1.75;;;12.00;46.90;;;;;;5079047;28;20129;-61
2021/04/27 08:09:38;;;;;;;3.60;1.70;;;12.10;45.00;;;;;;5072229;28;20040;-61
2021/04/27 08:12:04;;;;;;;3.88;1.65;;;12.00;44.50;;;;;;5082632;28;20321;-61
2021/04/27 08:14:30;;;;;;;5.88;1.80;;;12.10;45.90;;;;;;5073555;28;20055;-62
2021/04/27 08:16:56;;;;;;;4.32;1.48;;;12.30;46.70;;;;;;5081582;28;20040;-61
2021/04/27 08:19:22;;;;;;;4.78;1.80;;;12.60;44.40;;;;;;5075040;28;20479;-61
2021/04/27 08:21:47;;;;;;;4.70;1.42;;;13.00;43.30;;;;;;5081755;28;20036;-61
2021/04/27 08:24:13;;;;;;;4.97;1.55;;;13.30;43.00;;;;;;5070163;28;20487;-62
2021/04/27 08:26:39;;;;;;;6.07;1.92;;;13.80;41.40;;;;;;5081130;28;20077;-62
2021/04/27 08:29:05;;;;;;;5.13;1.65;;;14.00;38.60;;;;;;5075285;28;20052;-61
2021/04/27 08:31:31;;;;;;;3.05;1.23;;;14.50;40.40;;;;;;5080287;28;20105;-62
2021/04/27 08:33:57;;;;;;;3.95;1.75;;;15.10;40.70;;;;;;5072271;28;20543;-62
2021/04/27 08:36:23;;;;;;;6.40;1.60;;;15.50;37.40;;;;;;5077282;28;20157;-62
2021/04/27 08:38:49;;;;;;;4.60;1.25;;;15.60;36.50;;;;;;5073703;28;20043;-62
2021/04/27 08:41:15;;;;;;;6.57;1.80;;;15.60;36.40;;;;;;5079634;28;20052;-62
2021/04/27 08:43:41;;;;;;;3.78;1.60;;;15.40;34.80;;;;;;5077724;28;20036;-62
2021/04/27 08:46:07;;;;;;;4.00;1.30;;;15.50;35.30;;;;;;5075159;28;20032;-62
2021/04/27 08:48:33;;;;;;;4.00;1.58;;;15.90;36.10;;;;;;5081094;28;20044;-62
2021/04/27 08:50:59;;;;;;;4.05;1.73;;;15.90;35.50;;;;;;5070602;28;20047;-62
2021/04/27 08:53:25;;;;;;;3.78;2.08;;;16.00;34.90;;;;;;5083495;28;20048;-62
2021/04/27 08:55:51;;;;;;;5.57;1.65;;;16.20;33.80;;;;;;5073773;28;20048;-62
2021/04/27 08:58:17;;;;;;;3.53;1.50;;;16.40;34.70;;;;;;5077760;28;20132;-62
2021/04/27 09:00:45;;;;;;;4.90;1.63;;;16.70;35.00;;;;;;5072825;28;20047;-62
2021/04/27 09:03:12;;;;;;;3.72;1.80;;;16.90;34.00;;;;;;5081402;28;20043;-62
2021/04/27 09:05:43;;;;;;;5.22;1.83;;;16.90;32.40;;;;;;5075441;28;20044;-62
2021/04/27 09:08:09;;;;;;;5.32;1.48;;;16.90;34.00;;;;;;5078404;28;20039;-62
2021/04/27 09:10:44;;;;;;;5.63;1.67;;;17.20;34.40;;;;;;5074046;28;20044;-62
2021/04/27 09:13:13;;;;;;;2.83;1.40;;;17.10;30.00;;;;;;5078011;28;20044;-62
2021/04/27 09:15:57;;;;;;;3.97;1.55;;;17.20;32.10;;;;;;5072395;28;20036;-62
2021/04/27 09:18:33;;;;;;;3.05;1.50;;;16.90;29.40;;;;;;5082571;28;20458;-62
2021/04/27 09:21:02;;;;;;;4.55;1.50;;;16.80;31.00;;;;;;5074477;28;20087;-62
2021/04/27 09:23:29;;;;;;;3.53;1.50;;;16.40;31.20;;;;;;5075543;28;20355;-62
2021/04/27 09:26:14;;;;;;;4.30;1.63;;;16.60;32.60;;;;;;5072037;28;20136;-61
2021/04/27 09:28:51;;;;;;;4.43;1.92;;;16.70;31.30;;;;;;5077124;28;20040;-62
2021/04/27 09:31:35;;;;;;;3.42;1.42;;;17.00;31.40;;;;;;5068891;28;20479;-62
2021/04/27 09:34:24;;;;;;;3.78;1.55;;;17.10;31.80;;;;;;5078962;28;20486;-62
2021/04/27 09:36:55;;;;;;;5.35;1.70;;;17.40;31.80;;;;;;5075122;28;20036;-62
2021/04/27 09:39:34;;;;;;;3.42;1.48;;;17.20;30.00;;;;;;5080301;28;20032;-62
2021/04/27 09:42:16;;;;;;;2.65;1.75;;;17.40;30.00;;;;;;5080335;28;20039;-61
2021/04/27 09:44:51;;;;;;;4.88;1.60;;;17.00;30.20;;;;;;5087932;28;20037;-62
2021/04/27 09:47:25;;;;;;;2.90;1.40;;;16.60;30.20;;;;;;5074657;28;20040;-62
2021/04/27 09:50:10;;;;;;;3.13;1.38;;;16.80;30.80;;;;;;5085128;28;20052;-60
2021/04/27 09:52:46;;;;;;;2.15;1.35;;;16.50;30.70;;;;;;5074534;28;20044;-62
2021/04/27 09:55:22;;;;;;;4.43;1.27;;;16.50;30.80;;;;;;5082099;28;20040;-62
2021/04/27 09:57:54;;;;;;;3.13;1.40;;;16.00;30.10;;;;;;5074537;28;20070;-60
2021/04/27 10:00:39;;;;;;;4.60;1.50;;;16.30;30.80;;;;;;5079483;28;20033;-62
2021/04/27 10:03:12;;;;;;;2.33;1.23;;;16.50;31.50;;;;;;5077996;28;20471;-62
2021/04/27 10:05:42;;;;;;;2.53;1.53;;;16.70;30.70;;;;;;5083612;28;20041;-63
2021/04/27 10:08:11;;;;;;;3.38;1.70;;;16.80;30.30;;;;;;5076255;28;20636;-62
2021/04/27 10:10:38;;;;;;;4.60;1.60;;;16.80;30.70;;;;;;5080330;28;20507;-62
2021/04/27 10:13:06;;;;;;;4.13;1.33;;;17.00;30.00;;;;;;5077416;28;20047;-62
2021/04/27 10:15:32;;;;;;;1.98;1.10;;;17.10;30.00;;;;;;5083096;28;20043;-62
2021/04/27 10:18:00;;;;;;;3.60;1.30;;;17.10;30.80;;;;;;5076734;28;20045;-63
2021/04/27 10:20:27;;;;;;;4.25;1.10;;;17.40;30.90;;;;;;5082688;28;20056;-62
2021/04/27 10:22:53;;;;;;;3.55;1.20;;;17.60;29.60;;;;;;5072325;28;20415;-62
2021/04/27 10:25:25;;;;;;;5.38;1.50;;;17.70;29.70;;;;;;5084128;28;20708;-62
2021/04/27 10:28:02;;;;;;;7.10;1.52;;;17.60;29.10;;;;;;5074352;28;20044;-62
2021/04/27 10:30:34;;;;;;;4.43;1.50;;;17.60;28.70;;;;;;5078825;28;20475;-61
2021/04/27 10:33:03;;;;;;;3.97;1.77;;;17.60;29.10;;;;;;5075959;28;20044;-62
2021/04/27 10:36:02;;;;;;;1.50;1.27;;;17.70;30.00;;;;;;5084018;28;20105;-62
2021/04/27 10:38:43;;;;;;;4.65;1.30;;;18.10;29.80;;;;;;5078189;28;20495;-63
2021/04/27 10:41:12;;;;;;;2.90;1.35;;;17.70;27.10;;;;;;5080993;28;20044;-62
2021/04/27 10:43:44;;;;;;;5.03;1.42;;;17.30;27.70;;;;;;5075159;28;20072;-62
2021/04/27 10:46:22;;;;;;;5.00;1.50;;;16.50;28.50;;;;;;5084321;28;20060;-63
2021/04/27 10:48:49;;;;;;;7.03;1.92;;;16.70;30.20;;;;;;5077385;28;20040;-62
2021/04/27 10:51:21;;;;;;;6.07;1.20;;;16.90;29.90;;;;;;5078580;28;20500;-63
2021/04/27 10:54:09;;;;;;;3.13;1.58;;;17.20;29.40;;;;;;5077169;28;20044;-63
2021/04/27 10:56:49;;;;;;;3.80;1.13;;;17.30;27.90;;;;;;5081266;28;20068;-62
2021/04/27 10:59:19;;;;;;;4.05;1.30;;;17.20;28.70;;;;;;5073760;28;20403;-62
2021/04/27 11:01:46;;;;;;;4.38;1.42;;;17.20;28.30;;;;;;5082239;28;20044;-61
2021/04/27 11:04:33;;;;;;;4.75;1.40;;;17.40;29.20;;;;;;5076318;28;20086;-63
2021/04/27 11:07:10;;;;;;;1.90;1.00;;;17.70;28.90;;;;;;5083272;28;20388;-63
2021/04/27 11:09:36;;;;;;;3.58;1.25;;;17.70;28.00;;;;;;5075031;28;20064;-62
2021/04/27 11:12:34;;;;;;;2.00;0.93;;;17.90;29.30;;;;;;5080854;28;20050;-62
2021/04/27 11:15:08;;;;;;;3.63;1.30;;;17.30;26.00;;;;;;5076891;28;20466;-63
2021/04/27 11:17:37;;;;;;;4.32;1.73;;;16.60;26.90;;;;;;5081710;28;20044;-63
2021/04/27 11:20:06;;;;;;;3.90;1.38;;;16.50;28.80;;;;;;5072134;28;20044;-61
2021/04/27 11:22:34;;;;;;;7.93;1.40;;;17.10;28.40;;;;;;5083811;28;20475;-62
2021/04/27 11:25:05;;;;;;;4.60;1.70;;;16.70;29.00;;;;;;5074782;28;20036;-62
2021/04/27 11:27:33;;;;;;;3.03;1.33;;;17.00;28.10;;;;;;5081586;28;20032;-62
2021/04/27 11:30:10;;;;;;;4.43;0.95;;;16.60;27.30;;;;;;5081371;28;20063;-61
2021/04/27 11:32:41;;;;;;;2.70;0.98;;;16.60;28.70;;;;;;5082335;28;20075;-61
2021/04/27 11:35:17;;;;;;;4.50;1.50;;;17.20;28.50;;;;;;5080828;28;20084;-61
2021/04/27 11:37:56;;;;;;;2.10;1.30;;;17.90;28.60;;;;;;5080958;28;20044;-62
2021/04/27 11:40:39;;;;;;;4.55;1.35;;;18.00;28.20;;;;;;5083834;28;20032;-62
2021/04/27 11:43:13;;;;;;;2.90;1.10;;;18.40;26.60;;;;;;5081360;28;20143;-62
2021/04/27 11:45:46;;;;;;;;;;;18.30;26.60;;;;;;5083923;28;20089;-61
2021/04/27 11:48:22;;;;;;;3.83;1.48;;;18.00;27.80;;;;;;5081280;28;20017;-61
2021/04/27 11:50:49;;;;;;;4.57;1.52;;;18.20;26.80;;;;;;5079108;28;20132;-62
2021/04/27 11:53:17;;;;;;;2.65;1.08;;;18.40;27.30;;;;;;5076027;28;20482;-62
2021/04/27 11:55:51;;;;;;;1.58;1.05;;;18.60;28.00;;;;;;5080035;28;20087;-62
2021/04/27 11:58:26;;;;;;;4.72;1.40;;;18.60;27.70;;;;;;5074965;28;20053;-62
2021/04/27 12:00:54;;;;;;;3.85;1.58;;;18.20;27.20;;;;;;5082889;28;20097;-61
2021/04/27 12:03:21;;;;;;;5.20;1.30;;;18.40;27.30;;;;;;5075625;28;20044;-62
2021/04/27 12:05:53;;;;;;;3.70;1.50;;;18.20;27.00;;;;;;5079413;28;20040;-60
2021/04/27 12:08:28;;;;;;;2.63;1.30;;;18.50;27.10;;;;;;5073794;28;20472;-60
2021/04/27 12:11:22;;;;;;;3.33;1.20;;;18.70;27.50;;;;;;5082348;28;20047;-60
2021/04/27 12:13:51;;;;;;;;;;;18.40;25.50;;;;;;5074280;28;20058;-60
2021/04/27 12:16:24;;;;;;;5.70;1.48;;;18.70;27.30;;;;;;5080805;28;19916;-62
2021/04/27 12:19:02;;;;;;;3.57;1.43;;;19.00;25.60;;;;;;5073163;28;20033;-61
2021/04/27 12:21:44;;;;;;;4.22;1.50;;;19.20;25.00;;;;;;5078861;28;20040;-61
2021/04/27 12:24:22;;;;;;;2.20;1.35;;;19.30;25.50;;;;;;5074476;28;20071;-62
2021/04/27 12:27:02;;;;;;;2.08;1.42;;;19.30;26.80;;;;;;5078795;28;20557;-62
2021/04/27 12:30:10;;;;;;;5.68;1.23;;;19.20;26.00;;;;;;5075653;28;20061;-61
2021/04/27 12:32:39;;;;;;;3.22;1.50;;;19.50;26.60;;;;;;5073449;28;20096;-61
2021/04/27 12:35:06;;;;;;;2.88;1.30;;;19.80;26.90;;;;;;5083917;28;20040;-62
2021/04/27 12:37:36;;;;;;;2.83;1.63;;;19.80;25.20;;;;;;5078242;28;20119;-62
2021/04/27 12:40:15;;;;;;;5.88;1.48;;;19.80;25.70;;;;;;5073647;28;20404;-62
2021/04/27 12:42:53;;;;;;;2.45;1.60;;;19.80;26.40;;;;;;5078813;28;20046;-62
2021/04/27 12:45:20;;;;;;;4.05;1.55;;;20.10;24.50;;;;;;5078154;28;20052;-62
2021/04/27 12:47:49;;;;;;;3.80;1.60;;;19.90;25.30;;;;;;5080142;28;20403;-62
2021/04/27 12:50:20;;;;;;;3.55;1.50;;;19.90;25.70;;;;;;5070152;28;20041;-62
2021/04/27 12:52:49;;;;;;;5.78;1.77;;;18.80;24.40;;;;;;5080100;28;20443;-61
2021/04/27 12:55:38;;;;;;;5.60;2.10;;;18.00;26.10;;;;;;5071990;28;20051;-62
2021/04/27 12:58:10;;;;;;;3.67;2.08;;;17.50;26.10;;;;;;5080458;28;20502;-62
2021/04/27 13:00:51;;;;;;;5.13;1.95;;;17.90;27.20;;;;;;5073182;28;20048;-63
2021/04/27 13:03:21;;;;;;;1.88;1.73;;;18.00;26.90;;;;;;5080134;28;20095;-62